メインページ
METAR-TAF:

METAR-TAF

空港 :

ハト国際空港

キュラソー島, オランダ領アンティル

緯度: 12-12N, 経度: 068-58W, 海抜: 9m

現時点の気象観測

当レポートは47分前の11:00(UTC)に作成
東/南東の風 12kt
気温 27°C
湿度 79%
気圧 1014 hPa
視程10km以上

METAR: TNCC 221100Z AUTO 11012KT 9999 NCD 27/23 Q1014

時間: 07:47 (11:47 UTC)

予報

当レポートは1時間47分前の10:00(UTC)に作成
予報は22日の 12時(UTC)から 23日の 12時(UTC)まで有効
の風 15kt
視程10km以上
高度1800ftの雲は散在している

TAF: TNCC 221000Z 2212/2312 10015KT 9999 SCT018

4,000以上の空港の気象観測と天気予報(METAR報とTAF報)

利用可能な観測所は地図上に黄色い丸と赤い丸で示す。

丸の上にカーソルを重ねると観測所名を参照できる。

次にクリックすると気象観測と天気予報を参照できる。

マップの切り替え:黒色「×」印の緑ボタンをクリックして拡大、「-」印の緑ボタンをクリックして縮小、緑色の三角印をクリックして隣りの地図に切り替え


METAR-TAF: